CheckWX is a tool to help pilots better visualize weather data.  It is not intended as a substitute for an official pre-flight weather briefing.

06:01:53 UTC

KSYM TAF
Morehead-Rowan County Clyde A Thomas Regional Airport
Morehead, Kentucky, USA
KSYM 261137Z 2612/2712 00000KT P6SM SCT200 FM261400 13004KT P6SM SCT035 BKN200 FM261900 13004KT P6SM VCTS SCT035CB BKN200 FM270000 00000KT P6SM SCT070 BKN150

May-26@
12:00 UTC

May-26 @ 12:00 UTC

May-26@
14:00 UTC

May-26 @ 14:00 UTC

TAF KSYM 261137Z 2612/2712 00000KT P6SM SCT200

Expired

Cloud Levels
  • Scattered at 20,000' AGL

May-26@
14:00 UTC

May-26 @ 14:00 UTC

May-26@
19:00 UTC

May-26 @ 19:00 UTC

FM261400 13004KT P6SM SCT035 BKN200

Expired

Wind
  • 130° at 4 KTS
Cloud Levels
  • Scattered at 3,500' AGL
  • Broken at 20,000' AGL

May-26@
19:00 UTC

May-26 @ 19:00 UTC

May-27@
00:00 UTC

May-27 @ 00:00 UTC

FM261900 13004KT P6SM VCTS SCT035CB BKN200

Expired

Wind
  • 130° at 4 KTS
Conditions
Area Thunderstorm
Cloud Levels
  • Scattered at 3,500' AGL
  • Broken at 20,000' AGL

May-27@
00:00 UTC

May-27 @ 00:00 UTC

May-27@
12:00 UTC

May-27 @ 12:00 UTC

FM270000 00000KT P6SM SCT070 BKN150

From

From Standard forecast or significant change

Cloud Levels
  • Scattered at 7,000' AGL
  • Broken at 15,000' AGL